Hastings Natural History Reservation, California Weather observations

Data are for 10 minute period ending at time listed.
 Day   Time   Solar   Ave.   Ave.  Ave.  Vector  Max.   Baro.   Total    
  of    of     Rad.   Air    Rel.  Wind   Wind   Wind  Press.  Precip.   
Year   Day            Temp.  Hum.  Speed  Dir.   Gust                    
2017   (PST)  Kw/m2    F      %     mph   deg.    mph    mb.     in.     
-------------------------------------------------------------------------
  18   15:40   0.01   47.8    81    5.9    39    14.8   947.7    0.00 
  18   15:50   0.01   48.0    81    4.1    39    12.0   947.8    0.00 
  18   16:00   0.01   48.0    81    3.8    46     9.5   948.1    0.00 
  18   16:10   0.00   48.0    81    5.0    36    15.8   948.1    0.00 
  18   16:20   0.00   48.1    81    4.9    50    10.0   947.9    0.01 
  18   16:30   0.00   48.0    82    3.8    39    15.1   947.3    0.00 
  18   16:40   0.01   48.1    81    5.7    38    13.4   947.1    0.00 
  18   16:50   0.00   48.6    79    8.1    47    15.3   947.1    0.00 
  18   17:00   0.00   48.6    79    7.0    47    16.2   947.0    0.00 
  18   17:10   0.00   48.6    79    6.5    53    16.1   947.0    0.00 
  18   17:20   0.00   48.8    79    6.5    57    14.5   946.8    0.01 
  18   17:30   0.00   48.7    80    5.4    44    15.6   946.6    0.00 
  18   17:40   0.00   48.5    82    4.2    42    10.5   946.4    0.00 
  18   17:50   0.00   48.4    83    3.5    37     9.0   946.1    0.01 
  18   18:00   0.00   48.2    84    4.0    32     8.3   946.0    0.00 
  18   18:10   0.00   48.1    85    2.9    39     8.6   945.9    0.00 
  18   18:20   0.00   48.0    85    2.7    44     6.8   945.6    0.00 
  18   18:30   0.00   47.8    87    2.2    38     8.8   945.7    0.01 
  18   18:40   0.00   47.6    88    2.5    36     8.9   945.6    0.00 
  18   18:50   0.00   47.7    88    2.0    35     6.5   945.5    0.00 
  18   19:00   0.00   47.7    88    4.2    46    14.2   945.3    0.01 
  18   19:10   0.00   47.7    87    3.2    38    11.9   945.1    0.00 
  18   19:20   0.00   47.7    88    3.2    36    12.3   944.7    0.01 
  18   19:30   0.00   48.7    82    2.6    40     8.6   944.9    0.00 
  18   19:40   0.00   48.9    81    3.2   316     8.3   945.0    0.01 
  18   19:50   0.00   48.8    80    3.6   262     9.3   945.4    0.00 
  18   20:00   0.00   48.8    80    2.2   167    11.6   945.5    0.01 
  18   20:10   0.00   49.5    74    5.1   250    23.1   945.5    0.01 
  18   20:20   0.00   49.5    75    5.0   247    17.0   945.4    0.01 
  18   20:30   0.00   49.4    74    4.3   281    13.4   945.2    0.00 
  18   20:40   0.00   49.9    74    5.0   243    14.8   945.9    0.03 
  18   20:50   0.00   49.4    77    3.7   277    11.2   946.3    0.03 
  18   21:00   0.00   48.8    81    3.5   267     9.4   946.7    0.01 
  18   21:10   0.00   48.2    84    2.6   260    11.5   946.8    0.01 
  18   21:20   0.00   48.4    84    1.6   291     7.1   946.7    0.00 
  18   21:30   0.00   47.9    87    1.6    66     4.2   946.8    0.01 
  18   21:40   0.00   47.7    89    1.1    61     3.4   946.7    0.00 
  18   21:50   0.00   47.6    90    0.8    79     2.9   947.0    0.01 
  18   22:00   0.00   47.4    91    1.9    50     4.7   946.9    0.00 
  18   22:10   0.00   47.5    91    0.7    32     3.2   946.8    0.01 
  18   22:20   0.00   47.3    92    0.8    61     3.1   946.7    0.00 
  18   22:30   0.00   47.2    92    1.9    56     4.8   946.6    0.00 
  18   22:40   0.00   46.9    93    1.6   266     6.1   946.6    0.00 
  18   22:50   0.00   46.6    93    1.4    56     3.7   946.7    0.01 
  18   23:00   0.00   46.8    94    1.2    61     3.4   946.9    0.00 
  18   23:10   0.00   46.8    94    1.1    50     2.2   946.9    0.01 
  18   23:20   0.00   46.5    94    1.6    51     5.0   946.8    0.00 
  18   23:30   0.00   46.5    95    0.7   221     2.6   946.9    0.00 
  18   23:40   0.00   46.5    95    1.5   223     3.7   947.2    0.00 
  18   23:50   0.00   46.2    95    1.2    49     2.6   947.3    0.01 
  19    0:00   0.00   46.0    96    0.7    67     2.1   947.3    0.00 
  19    0:10   0.00   45.9    96    0.9   187     3.0   947.3    0.02 
  19    0:20   0.00   46.3    96    0.5   184     2.2   947.4    0.00 
  19    0:30   0.00   46.3    96    0.1    95     0.9   947.4    0.00 
  19    0:40   0.00   46.4    97    0.2    35     1.6   947.5    0.00 
  19    0:50   0.00   46.8    97    0.5   201     1.5   947.5    0.00 
  19    1:00   0.00   47.2    97    1.0   244     2.5   947.7    0.00 
  19    1:10   0.00   47.2    97    0.4   245     2.3   947.7    0.01 
  19    1:20   0.00   47.2    97    0.5   329     2.1   947.8    0.00 
  19    1:30   0.00   47.1    97    1.1   234     3.7   947.8    0.00 
  19    1:40   0.00   47.0    97    0.4   248     2.6   947.9    0.00 
  19    1:50   0.00   46.9    97    1.1   238     2.3   948.0    0.00 
  19    2:00   0.00   46.8    97    0.3   274     1.8   948.1    0.00 
  19    2:10   0.00   46.7    97    0.6    40     2.6   948.0    0.00 
  19    2:20   0.00   46.3    97    2.2    39     4.1   947.8    0.00 
  19    2:30   0.00   45.6    96    1.6    37     3.4   947.8    0.00 
  19    2:40   0.00   44.7    96    2.1    33     4.5   947.8    0.00 
  19    2:50   0.00   44.1    96    2.4    44     4.7   947.7    0.00 
  19    3:00   0.00   43.8    97    2.7    57     5.8   947.5    0.00 
  19    3:10   0.00   43.5    96    0.9    39     4.1   947.5    0.00 
  19    3:20   0.00   43.3    96    1.5    56     4.2   947.5    0.00 
  19    3:30   0.00   43.2    96    1.8    54     3.9   947.4    0.00 
  19    3:40   0.00   43.2    96    0.5   246     1.9   947.3    0.01 
  19    3:50   0.00   42.8    96    0.7   126     1.9   947.2    0.00 
  19    4:00   0.00   43.0    97    1.1    72     4.7   947.1    0.00 
  19    4:10   0.00   43.4    97    0.3   214     1.9   947.1    0.00 
  19    4:20   0.00   43.2    96    0.7    63     1.8   947.1    0.00 
  19    4:30   0.00   43.4    97    0.0    27     0.5   947.1    0.02 
  19    4:40   0.00   43.3    97    0.2   208     0.9   947.2    0.00 
  19    4:50   0.00   43.4    97    0.0   193     1.2   947.1    0.00 
  19    5:00   0.00   43.4    97    2.4   242     9.4   947.3    0.01 
  19    5:10   0.00   43.0    97    2.4   226     8.8   947.5    0.03 
  19    5:20   0.00   42.9    97    1.0   188     2.5   947.5    0.04 
  19    5:30   0.00   42.8    97    1.6   243     6.0   947.8    0.04 
  19    5:40   0.00   42.8    97    3.0   218     7.4   948.2    0.07 
  19    5:50   0.00   42.3    96    3.1    62     6.9   947.6    0.03 
  19    6:00   0.00   42.1    96    0.3    46     1.9   947.7    0.00 
  19    6:10   0.00   42.0    96    1.9   328     4.0   947.7    0.01 
  19    6:20   0.00   41.7    96    2.3    77     4.6   947.6    0.00 
  19    6:30   0.00   41.2    96    3.3    87     6.5   947.6    0.00 
  19    6:40   0.00   40.9    95    1.7    98     4.8   947.6    0.00 
  19    6:50   0.00   40.2    95    1.8    67     5.8   947.6    0.00 
  19    7:00   0.00   39.8    95    1.6    98     3.9   947.6    0.00 
  19    7:10   0.00   39.9    96    0.7    95     3.6   947.7    0.00 
  19    7:20   0.00   39.5    95    0.6    82     2.4   947.9    0.00 
  19    7:30   0.00   39.1    96    1.7   121     4.5   948.0    0.00 
  19    7:40   0.01   39.0    96    2.2   112     4.2   947.9    0.00 
  19    7:50   0.03   39.1    96    0.7   191     2.9   948.0    0.00 
  19    8:00   0.01   39.1    96    0.8    61     2.0   948.1    0.00 
  19    8:10   0.03   38.9    96    1.2   241     3.2   948.1    0.00 
  19    8:20   0.02   38.7    96    0.7   231     1.9   948.2    0.00 
  19    8:30   0.03   38.9    97    0.5   234     1.6   948.3    0.00 
  19    8:40   0.02   39.2    97    1.3    50     2.5   948.3    0.00 
  19    8:50   0.02   39.8    97    0.9    74     2.9   948.3    0.00 
  19    9:00   0.04   40.2    98    0.2   250     2.0   948.5    0.00 
  19    9:10   0.05   41.0    98    0.8    60     2.0   948.3    0.00 
  19    9:20   0.10   42.4    98    0.8   240     2.6   948.5    0.00 
  19    9:30   0.10   44.1    98    0.1    85     1.2   948.7    0.00 
  19    9:40   0.11   45.6    98    0.3   105     1.3   948.9    0.00 
  19    9:50   0.12   46.1    98    0.2   122     1.5   949.1    0.00 
  19   10:00   0.11   46.8    97    1.0     9     4.1   949.2    0.00 
  19   10:10   0.12   46.8    94    1.1    32     3.4   949.3    0.00 
  19   10:20   0.09   46.8    91    0.6   266     2.9   949.3    0.01 
  19   10:30   0.09   46.8    88    0.6   135     2.3   949.4    0.00 
  19   10:40   0.10   47.2    89    0.4   204     2.0   949.4    0.00 
  19   10:50   0.10   47.2    89    1.0   237     3.1   949.4    0.01 
  19   11:00   0.10   47.2    89    1.4   244     4.1   949.4    0.00 
  19   11:10   0.09   47.0    88    1.9   299     5.8   949.5    0.01 
  19   11:20   0.07   46.9    89    1.4   308     6.0   949.5    0.02 
  19   11:30   0.04   46.2    90    2.6   342     7.8   949.4    0.02 
  19   11:40   0.05   45.7    90    1.5     1     6.4   949.3    0.03 
  19   11:50   0.09   45.4    89    1.0    26     3.4   949.0    0.01 
  19   12:00   0.12   45.6    89    0.6    64     2.9   949.0    0.00 
  19   12:10   0.22   46.5    89    0.5   202     1.3   948.8    0.00 
  19   12:20   0.17   47.1    87    0.5   231     2.3   948.7    0.00 
  19   12:30   0.17   47.3    86    0.0   163     0.4   948.5    0.00 
  19   12:40   0.19   47.8    84    0.6   233     2.8   948.3    0.00 
  19   12:50   0.11   47.8    80    0.9     5     5.5   948.0    0.00 
  19   13:00   0.17   48.1    78    1.5   302     4.1   947.9    0.00 
  19   13:10   0.27   48.7    77    1.9   252     5.0   947.7    0.00 
  19   13:20   0.28   49.4    76    1.6   330     3.9   947.6    0.00 
  19   13:30   0.33   50.0    75    1.6   308     3.7   947.5    0.00 
  19   13:40   0.21   50.3    74    1.8   294     5.3   947.5    0.00 
  19   13:50   0.10   49.4    74    2.2     4     5.4   947.5    0.00 
  19   14:00   0.09   49.1    75    1.7   350     5.2   947.4    0.00 
  19   14:10   0.08   49.1    77    0.8   268     2.9   947.3    0.00 
  19   14:20   0.14   49.1    78    1.5   236     7.4   947.2    0.00 
  19   14:30   0.23   49.6    72    3.0   264     8.1   947.1    0.00 
  19   14:40   0.41   50.9    69    1.8   266     5.8   946.9    0.00 
  19   14:50   0.25   51.3    64    2.6   251     6.7   947.0    0.00 
  19   15:00   0.15   50.1    66    1.8   267     5.4   947.1    0.00 
  19   15:10   0.35   50.5    64    3.0   235     7.3   947.1    0.00 
  19   15:20   0.27   50.9    62    3.7   241     8.6   947.1    0.00 
  19   15:30   0.29   50.8    63    1.8   259     6.1   947.2    0.00 

Return to Hastings Natural History Reservation graphs page.


Western Regional Climate Center,wrcc@dri.edu